createdAt,value
2023-03-23T15:57:52.391Z,4.15
2023-03-23T16:00:23.271Z,4.10
2023-03-23T16:02:57.950Z,4.07
2023-03-23T16:05:27.028Z,3.92
2023-03-23T16:07:54.561Z,4.32
2023-03-23T16:10:23.954Z,5.90
2023-03-23T16:12:51.473Z,6.00
2023-03-23T16:15:21.002Z,6.22
2023-03-23T16:17:48.567Z,5.18
2023-03-23T16:20:19.604Z,4.85
2023-03-23T16:22:50.644Z,4.78
2023-03-23T16:25:19.139Z,4.90
2023-03-23T16:27:52.617Z,4.63
2023-03-23T16:30:33.651Z,4.80
2023-03-23T16:33:01.540Z,5.18
2023-03-23T16:35:28.716Z,6.65
2023-03-23T16:38:07.861Z,5.05
2023-03-23T16:40:37.760Z,5.68
2023-03-23T16:43:08.750Z,5.93
2023-03-23T16:45:43.164Z,5.30
2023-03-23T16:48:12.837Z,5.25
2023-03-23T16:50:40.531Z,5.72
2023-03-23T16:53:09.789Z,5.80
2023-03-23T16:55:38.341Z,5.07
2023-03-23T16:58:16.285Z,5.07
2023-03-23T17:00:47.849Z,5.22
2023-03-23T17:03:22.439Z,5.28
2023-03-23T17:05:51.251Z,12.18
2023-03-23T17:08:20.268Z,18.33
2023-03-23T17:10:48.329Z,25.52
2023-03-23T17:13:17.776Z,35.95
2023-03-23T17:15:47.323Z,36.65
2023-03-23T17:18:15.578Z,40.45
2023-03-23T17:20:43.126Z,42.85
2023-03-23T17:23:10.469Z,47.60
2023-03-23T17:25:37.625Z,54.58
2023-03-23T17:28:05.446Z,54.13
2023-03-23T17:30:33.419Z,49.92
2023-03-23T17:33:00.719Z,51.45
2023-03-23T17:35:28.718Z,37.30
2023-03-23T17:37:55.988Z,30.88
2023-03-23T17:40:23.543Z,23.60
2023-03-23T17:42:50.998Z,24.75
2023-03-23T17:45:18.267Z,30.02
2023-03-23T17:47:49.936Z,25.88
2023-03-23T17:50:19.129Z,29.85
2023-03-23T17:52:46.380Z,27.42
2023-03-23T17:55:13.551Z,24.58
2023-03-23T17:57:44.078Z,24.15
2023-03-23T18:00:12.621Z,17.17
2023-03-23T18:02:39.863Z,16.85
2023-03-23T18:05:09.429Z,13.38
2023-03-23T18:07:40.200Z,11.70
2023-03-23T18:10:12.832Z,11.10
2023-03-23T18:12:41.593Z,9.60
2023-03-23T18:15:09.864Z,8.00
2023-03-23T18:17:37.256Z,7.75
2023-03-23T18:20:06.921Z,9.05
2023-03-23T18:22:34.304Z,9.60
2023-03-23T18:25:02.893Z,8.20
2023-03-23T18:27:30.104Z,7.53
2023-03-23T18:29:57.232Z,6.50
2023-03-23T18:32:24.519Z,6.15
2023-03-23T18:34:51.738Z,6.65
2023-03-23T18:37:20.793Z,6.80
2023-03-23T18:39:48.108Z,6.25
2023-03-23T18:42:15.534Z,6.18
2023-03-23T18:44:42.796Z,6.57
2023-03-23T18:47:10.369Z,6.55
2023-03-23T18:49:38.840Z,6.53
2023-03-23T18:52:06.358Z,6.90
2023-03-23T18:54:35.146Z,6.78
2023-03-23T18:57:02.781Z,7.47
2023-03-23T18:59:34.719Z,6.68
2023-03-23T19:02:03.668Z,6.30
2023-03-23T19:04:33.174Z,6.93
2023-03-23T19:07:04.413Z,7.10
2023-03-23T19:09:34.447Z,7.47
2023-03-23T19:12:02.700Z,7.30
2023-03-23T19:14:29.850Z,8.68
2023-03-23T19:16:57.095Z,8.65
2023-03-23T19:19:25.037Z,10.10
2023-03-23T19:24:20.678Z,8.68
2023-03-23T19:26:48.735Z,7.93
2023-03-23T19:29:26.123Z,8.50
2023-03-23T19:31:55.544Z,8.50
2023-03-23T19:34:24.693Z,11.23
2023-03-23T19:36:56.429Z,15.25
2023-03-23T19:39:31.637Z,13.80
2023-03-23T19:41:59.235Z,11.23
2023-03-23T19:44:26.557Z,9.68
2023-03-23T19:46:54.376Z,8.98
2023-03-23T19:49:21.572Z,8.63
2023-03-23T19:52:15.577Z,9.55
2023-03-23T19:54:44.254Z,7.65
2023-03-23T19:57:12.141Z,7.35
2023-03-23T19:59:39.675Z,7.35
2023-03-23T20:02:07.780Z,7.50
2023-03-23T20:04:36.075Z,8.40
2023-03-23T20:07:07.194Z,7.47
2023-03-23T20:09:35.315Z,8.52
2023-03-23T20:12:02.507Z,8.38
2023-03-23T20:14:30.649Z,7.82
2023-03-23T20:16:57.862Z,8.52
2023-03-23T20:19:25.042Z,8.82
2023-03-23T20:21:52.902Z,8.43
2023-03-23T20:24:20.268Z,7.80
2023-03-23T20:26:47.660Z,7.68
2023-03-23T20:29:14.925Z,7.45
2023-03-23T20:31:42.236Z,7.97
2023-03-23T20:34:14.692Z,7.53
2023-03-23T20:36:45.393Z,7.03
2023-03-23T20:39:23.409Z,7.32
2023-03-23T20:41:52.869Z,6.45
2023-03-23T20:44:23.395Z,7.13
2023-03-23T20:46:52.330Z,7.57
2023-03-23T20:49:20.875Z,7.38
2023-03-23T20:51:48.442Z,7.03
2023-03-23T20:54:16.847Z,7.25
2023-03-23T20:56:44.921Z,7.40
2023-03-23T20:59:13.144Z,7.25
2023-03-23T21:01:40.871Z,7.93
2023-03-23T21:04:15.724Z,8.80
2023-03-23T21:06:44.428Z,8.43
2023-03-23T21:09:13.029Z,8.00
2023-03-23T21:11:40.348Z,8.27
2023-03-23T21:14:07.705Z,8.23
2023-03-23T21:16:35.784Z,9.43
2023-03-23T21:19:04.592Z,8.25
2023-03-23T21:21:32.245Z,7.72
2023-03-23T21:23:59.481Z,8.75
2023-03-23T21:26:29.584Z,8.15
2023-03-23T21:29:00.334Z,9.38
2023-03-23T21:31:30.678Z,7.47
2023-03-23T21:33:59.275Z,8.50
2023-03-23T21:36:29.466Z,8.30
2023-03-23T21:39:02.231Z,8.27
2023-03-23T21:41:41.978Z,7.53
2023-03-23T21:44:10.730Z,8.48
2023-03-23T21:46:42.237Z,8.20
2023-03-23T21:49:14.316Z,7.90
2023-03-23T21:51:43.103Z,8.23
2023-03-23T21:54:11.796Z,7.85
2023-03-23T21:56:39.759Z,8.50
2023-03-23T21:59:09.226Z,7.80
2023-03-23T22:01:40.591Z,8.68
2023-03-23T22:04:08.246Z,8.65
2023-03-23T22:06:35.519Z,9.40
2023-03-23T22:09:05.612Z,8.57
2023-03-23T22:11:33.401Z,8.98
2023-03-23T22:14:01.385Z,8.68
2023-03-23T22:16:28.946Z,8.88
2023-03-23T22:18:59.670Z,9.23
2023-03-23T22:21:28.770Z,9.02
2023-03-23T22:24:00.139Z,8.93
2023-03-23T22:26:28.161Z,9.38
2023-03-23T22:28:56.201Z,9.43
2023-03-23T22:31:26.567Z,9.38
2023-03-23T22:33:55.655Z,9.50
2023-03-23T22:36:24.845Z,9.23
2023-03-23T22:38:52.260Z,8.48
2023-03-23T22:41:26.264Z,8.93
2023-03-23T22:44:21.857Z,9.00
2023-03-23T22:46:49.291Z,9.32
2023-03-23T22:49:16.670Z,8.38
2023-03-23T22:51:43.914Z,7.60
2023-03-23T22:54:11.619Z,7.65
2023-03-23T22:56:39.635Z,7.47
2023-03-23T22:59:08.191Z,7.55
2023-03-23T23:01:36.286Z,6.90
2023-03-23T23:04:06.636Z,6.90
2023-03-23T23:06:34.267Z,6.50
2023-03-23T23:09:01.518Z,5.85
2023-03-23T23:11:28.754Z,6.65
2023-03-23T23:13:57.130Z,5.55
2023-03-23T23:16:27.778Z,6.15
2023-03-23T23:18:55.641Z,5.35
2023-03-23T23:21:26.164Z,5.55
2023-03-23T23:23:53.994Z,6.20
2023-03-23T23:26:22.066Z,5.63
2023-03-23T23:28:49.379Z,5.68
2023-03-23T23:31:26.624Z,5.10
2023-03-23T23:33:58.196Z,5.25
2023-03-23T23:36:32.437Z,4.88
2023-03-23T23:41:30.017Z,4.85
2023-03-23T23:43:57.478Z,5.18
2023-03-23T23:46:24.655Z,5.82
2023-03-23T23:48:52.133Z,4.65
2023-03-23T23:51:19.641Z,5.05
2023-03-23T23:53:53.651Z,5.43
2023-03-23T23:56:22.434Z,4.93
2023-03-23T23:58:49.685Z,4.90
